createdAt,value
2023-05-19T00:01:04.480Z,13.8
2023-05-19T00:06:10.563Z,14.1
2023-05-19T00:11:16.673Z,13.8
2023-05-19T00:16:22.760Z,13.8
2023-05-19T00:21:28.861Z,13.8
2023-05-19T00:26:34.946Z,13.8
2023-05-19T00:31:41.059Z,13.8
2023-05-19T00:36:47.136Z,13.4
2023-05-19T00:41:53.222Z,13.4
2023-05-19T00:46:59.347Z,13.4
2023-05-19T00:52:05.425Z,13.4
2023-05-19T00:57:11.517Z,13.8
2023-05-19T01:02:17.627Z,13.4
2023-05-19T01:07:22.736Z,13.4
2023-05-19T01:12:28.833Z,13.4
2023-05-19T01:17:34.938Z,13.8
2023-05-19T01:22:41.035Z,13.8
2023-05-19T01:27:47.126Z,13.4
2023-05-19T01:32:53.219Z,13.1
2023-05-19T01:37:58.341Z,13.8
2023-05-19T01:43:04.443Z,13.1
2023-05-19T01:48:10.525Z,13.4
2023-05-19T01:53:16.611Z,13.4
2023-05-19T01:58:22.726Z,13.4
2023-05-19T02:03:28.826Z,13.8
2023-05-19T02:08:34.923Z,13.4
2023-05-19T02:13:40.998Z,13.1
2023-05-19T02:18:47.107Z,13.8
2023-05-19T02:23:53.203Z,13.4
2023-05-19T02:28:59.308Z,13.4
2023-05-19T02:34:05.408Z,13.4
2023-05-19T02:39:11.500Z,13.1
2023-05-19T02:44:16.624Z,13.4
2023-05-19T02:49:22.700Z,13.4
2023-05-19T02:54:28.808Z,13.4
2023-05-19T02:59:34.916Z,13.4
2023-05-19T03:04:41.001Z,13.4
2023-05-19T03:09:47.100Z,13.1
2023-05-19T03:14:53.196Z,13.8
2023-05-19T03:19:59.293Z,13.4
2023-05-19T03:25:05.396Z,13.1
2023-05-19T03:30:11.519Z,14.1
2023-05-19T03:35:17.596Z,13.4
2023-05-19T03:40:23.686Z,12.8
2023-05-19T03:45:29.776Z,13.1
2023-05-19T03:50:34.905Z,13.8
2023-05-19T03:55:40.990Z,13.1
2023-05-19T04:00:47.080Z,13.1
2023-05-19T04:05:53.189Z,13.1
2023-05-19T04:10:59.294Z,13.1
2023-05-19T04:16:05.387Z,13.4
2023-05-19T04:21:11.469Z,12.8
2023-05-19T04:26:17.568Z,13.4
2023-05-19T04:31:23.658Z,13.4
2023-05-19T04:36:29.757Z,12.8
2023-05-19T04:41:35.874Z,13.1
2023-05-19T04:46:41.965Z,13.1
2023-05-19T04:51:48.066Z,12.8
2023-05-19T04:56:53.171Z,13.1
2023-05-19T05:01:59.276Z,13.1
2023-05-19T05:07:05.362Z,12.8
2023-05-19T05:12:11.469Z,12.8
2023-05-19T05:17:17.562Z,13.1
2023-05-19T05:22:23.648Z,13.1
2023-05-19T05:27:29.758Z,12.8
2023-05-19T05:32:35.840Z,13.1
2023-05-19T05:37:41.948Z,13.1
2023-05-19T05:42:48.055Z,13.4
2023-05-19T05:47:54.207Z,13.4
2023-05-19T05:53:00.240Z,12.8
2023-05-19T05:58:06.351Z,13.1
2023-05-19T06:03:11.452Z,12.8
2023-05-19T06:08:17.553Z,13.1
2023-05-19T06:13:23.634Z,13.1
2023-05-19T06:18:29.757Z,13.1
2023-05-19T06:23:35.836Z,13.4
2023-05-19T06:28:41.930Z,12.8
2023-05-19T06:33:48.073Z,13.8
2023-05-19T06:38:54.172Z,13.1
2023-05-19T06:44:00.219Z,13.1
2023-05-19T06:49:06.316Z,12.8
2023-05-19T06:54:12.418Z,12.8
2023-05-19T06:59:18.510Z,12.8
2023-05-19T07:04:24.614Z,13.1
2023-05-19T07:09:29.731Z,12.8
2023-05-19T07:14:35.832Z,13.4
2023-05-19T07:19:41.966Z,12.8
2023-05-19T07:24:48.006Z,13.4
2023-05-19T07:29:54.149Z,13.1
2023-05-19T07:35:00.214Z,13.4
2023-05-19T07:40:06.281Z,13.1
2023-05-19T07:45:12.422Z,13.1
2023-05-19T07:50:18.468Z,13.1
2023-05-19T07:55:24.575Z,12.8
2023-05-19T08:00:30.673Z,13.1
2023-05-19T08:05:36.773Z,13.1
2023-05-19T08:10:41.871Z,13.4
2023-05-19T08:15:47.024Z,13.1
2023-05-19T08:20:52.315Z,13.1
2023-05-19T08:25:58.222Z,13.1
2023-05-19T08:31:04.438Z,13.1
2023-05-19T08:36:10.411Z,13.1
2023-05-19T08:41:16.516Z,13.1
2023-05-19T08:46:22.606Z,13.4
2023-05-19T08:51:28.723Z,13.1
2023-05-19T08:56:34.983Z,13.4
2023-05-19T09:01:40.925Z,13.4
2023-05-19T09:06:47.195Z,13.1
2023-05-19T09:11:53.252Z,13.4
2023-05-19T09:16:59.320Z,13.4
2023-05-19T09:22:05.261Z,13.1
2023-05-19T09:27:10.460Z,13.4
2023-05-19T09:32:16.650Z,13.1
2023-05-19T09:37:22.680Z,13.4
2023-05-19T09:42:28.847Z,14.1
2023-05-19T09:47:34.988Z,13.8
2023-05-19T09:52:40.868Z,13.8
2023-05-19T09:57:46.936Z,13.4
2023-05-19T10:02:53.185Z,13.1
2023-05-19T10:07:59.316Z,13.4
2023-05-19T10:13:05.330Z,13.4
2023-05-19T10:18:11.524Z,13.8
2023-05-19T10:23:17.665Z,13.1
2023-05-19T10:28:23.743Z,13.4
2023-05-19T10:33:28.898Z,13.8
2023-05-19T10:38:34.829Z,13.4
2023-05-19T10:43:40.987Z,13.8
2023-05-19T10:48:47.102Z,13.4
2023-05-19T10:53:53.098Z,13.8
2023-05-19T10:58:59.136Z,13.4
2023-05-19T11:04:05.411Z,13.8
2023-05-19T11:09:11.485Z,13.8
2023-05-19T11:14:17.606Z,13.8
2023-05-19T11:19:23.616Z,13.8
2023-05-19T11:24:28.775Z,13.8
2023-05-19T11:29:33.839Z,14.4
2023-05-19T11:34:39.914Z,14.1
2023-05-19T11:39:46.075Z,13.8
2023-05-19T11:44:52.011Z,14.1
2023-05-19T11:49:58.194Z,14.1
2023-05-19T11:55:04.299Z,13.8
2023-05-19T12:00:10.401Z,14.1
2023-05-19T12:05:16.435Z,14.1
2023-05-19T12:10:22.483Z,14.1
2023-05-19T12:15:28.721Z,14.1
2023-05-19T12:20:34.844Z,14.1
2023-05-19T12:25:40.929Z,14.1
2023-05-19T12:30:47.059Z,14.4
2023-05-19T12:35:52.168Z,14.4
2023-05-19T12:40:58.062Z,14.1
2023-05-19T12:46:04.347Z,14.1
2023-05-19T12:51:10.419Z,14.4
2023-05-19T12:56:16.511Z,14.4
2023-05-19T13:01:22.681Z,15
2023-05-19T13:06:28.562Z,14.4
2023-05-19T13:11:34.638Z,14.4
2023-05-19T13:16:40.760Z,14.4
2023-05-19T13:21:47.031Z,14.1
2023-05-19T13:26:52.936Z,15
2023-05-19T13:31:59.130Z,14.7
2023-05-19T13:37:05.126Z,15.4
2023-05-19T13:42:10.429Z,14.4
2023-05-19T13:47:16.332Z,14.7
2023-05-19T13:52:22.638Z,14.7
2023-05-19T13:57:28.603Z,16
2023-05-19T14:02:34.716Z,15
2023-05-19T14:07:40.863Z,14.7
2023-05-19T14:12:46.998Z,14.7
2023-05-19T14:17:52.900Z,15.4
2023-05-19T14:22:59.026Z,15
2023-05-19T14:28:05.169Z,15.4
2023-05-19T14:33:11.357Z,15
2023-05-19T14:38:17.482Z,15
2023-05-19T14:43:23.480Z,15.4
2023-05-19T14:48:28.657Z,15
2023-05-19T14:53:34.748Z,15
2023-05-19T14:58:40.810Z,15.4
2023-05-19T15:03:46.788Z,15.4
2023-05-19T15:08:53.053Z,15.7
2023-05-19T15:13:59.030Z,15.4
2023-05-19T15:19:05.160Z,15.4
2023-05-19T15:24:11.323Z,15.4
2023-05-19T15:29:17.371Z,15
2023-05-19T15:34:23.459Z,15.4
2023-05-19T15:39:29.461Z,15.7
2023-05-19T15:44:35.677Z,15.7
2023-05-19T15:49:41.835Z,15.7
2023-05-19T15:54:46.742Z,15.4
2023-05-19T15:59:52.967Z,15.4
2023-05-19T16:04:59.208Z,15.7
2023-05-19T16:10:05.192Z,15.7
2023-05-19T16:15:11.223Z,15.4
2023-05-19T16:20:17.352Z,15.4
2023-05-19T16:25:23.506Z,15.7
2023-05-19T16:30:29.442Z,15.4
2023-05-19T16:35:35.516Z,15.7
2023-05-19T16:40:41.867Z,15.7
2023-05-19T16:45:47.781Z,15.7
2023-05-19T16:50:54.039Z,15.7
2023-05-19T16:55:59.978Z,15.7
2023-05-19T17:01:05.017Z,15.4
2023-05-19T17:06:11.107Z,15.7
2023-05-19T17:11:17.206Z,16
2023-05-19T17:16:23.288Z,15.7
2023-05-19T17:21:29.470Z,15.7
2023-05-19T17:26:35.642Z,15.4
2023-05-19T17:31:41.622Z,15.4
2023-05-19T17:36:47.889Z,15.7
2023-05-19T17:41:53.957Z,15.4
2023-05-19T17:46:59.990Z,15.4
2023-05-19T17:52:06.176Z,16
2023-05-19T17:57:12.279Z,15.7
2023-05-19T18:02:18.288Z,15.4
2023-05-19T18:07:23.323Z,16
2023-05-19T18:12:29.350Z,15.4
2023-05-19T18:17:35.744Z,15.4
2023-05-19T18:22:41.746Z,15.4
2023-05-19T18:27:47.849Z,16
2023-05-19T18:32:53.744Z,15.4
2023-05-19T18:37:59.970Z,15.4
2023-05-19T18:43:05.004Z,15.7
2023-05-19T18:48:11.053Z,15.4
2023-05-19T18:53:17.139Z,15.4
2023-05-19T18:58:23.273Z,15.4
2023-05-19T19:03:29.523Z,15.4
2023-05-19T19:08:35.620Z,15.4
2023-05-19T19:13:41.570Z,15
2023-05-19T19:18:47.629Z,15.4
2023-05-19T19:23:53.781Z,15
2023-05-19T19:28:59.921Z,15.7
2023-05-19T19:34:06.110Z,15.4
2023-05-19T19:39:12.021Z,15
2023-05-19T19:44:18.206Z,15.4
2023-05-19T19:49:23.408Z,15.4
2023-05-19T19:54:29.538Z,15
2023-05-19T19:59:35.575Z,15
2023-05-19T20:04:41.652Z,15.4
2023-05-19T20:09:47.797Z,15.4
2023-05-19T20:14:53.713Z,15
2023-05-19T20:19:59.964Z,15
2023-05-19T20:25:06.078Z,15
2023-05-19T20:30:11.997Z,15
2023-05-19T20:35:18.222Z,15.4
2023-05-19T20:40:24.183Z,15
2023-05-19T20:45:30.328Z,15.4
2023-05-19T20:50:36.552Z,15
2023-05-19T20:55:41.486Z,15
2023-05-19T21:00:47.585Z,15.7
2023-05-19T21:05:53.681Z,15.7
2023-05-19T21:10:59.790Z,14.7
2023-05-19T21:16:05.934Z,15
2023-05-19T21:21:12.152Z,15.4
2023-05-19T21:26:18.247Z,15
2023-05-19T21:31:24.257Z,14.7
2023-05-19T21:36:30.463Z,15.4
2023-05-19T21:41:36.501Z,15.4
2023-05-19T21:46:42.599Z,15
2023-05-19T21:51:48.557Z,15
2023-05-19T21:56:54.815Z,14.7
2023-05-19T22:01:59.796Z,15
2023-05-19T22:07:05.944Z,14.7
2023-05-19T22:12:11.944Z,14.7
2023-05-19T22:17:18.217Z,14.7
2023-05-19T22:22:24.291Z,14.7
2023-05-19T22:27:30.289Z,14.7
2023-05-19T22:32:36.461Z,14.7
2023-05-19T22:37:42.631Z,14.7
2023-05-19T22:42:48.690Z,15.4
2023-05-19T22:47:54.728Z,14.4
2023-05-19T22:53:00.862Z,14.7
2023-05-19T22:58:06.884Z,14.1
2023-05-19T23:03:13.037Z,14.7
2023-05-19T23:08:18.164Z,14.7
2023-05-19T23:13:24.296Z,14.7
2023-05-19T23:18:30.360Z,14.4
2023-05-19T23:23:36.483Z,14.7
2023-05-19T23:28:42.651Z,14.4
2023-05-19T23:33:48.621Z,14.7
2023-05-19T23:38:54.662Z,14.7
2023-05-19T23:44:00.877Z,14.4
2023-05-19T23:49:06.836Z,14.4
2023-05-19T23:54:13.019Z,14.4
2023-05-19T23:59:19.108Z,14.7
